createdAt,value
2022-09-05T00:02:56.894Z,18.65
2022-09-05T00:06:04.944Z,18.62
2022-09-05T00:09:12.870Z,18.55
2022-09-05T00:12:14.753Z,18.48
2022-09-05T00:15:23.568Z,18.44
2022-09-05T00:24:18.630Z,18.39
2022-09-05T00:24:24.864Z,18.36
2022-09-05T00:25:55.514Z,18.39
2022-09-05T00:29:03.411Z,18.37
2022-09-05T00:32:12.619Z,18.33
2022-09-05T00:35:25.971Z,18.31
2022-09-05T00:38:36.620Z,18.28
2022-09-05T00:41:41.099Z,18.23
2022-09-05T00:44:50.506Z,18.16
2022-09-05T00:47:57.434Z,18.14
2022-09-05T00:51:13.226Z,18.15
2022-09-05T00:54:41.073Z,18.09
2022-09-05T00:57:52.975Z,18.06
2022-09-05T01:00:55.615Z,18.05
2022-09-05T01:04:05.928Z,18.05
2022-09-05T01:07:13.367Z,18.02
2022-09-05T01:10:23.624Z,17.96
2022-09-05T01:13:35.960Z,17.92
2022-09-05T01:16:45.138Z,17.89
2022-09-05T01:20:19.386Z,17.89
2022-09-05T01:23:31.043Z,17.87
2022-09-05T01:26:50.222Z,17.85
2022-09-05T01:29:57.036Z,17.83
2022-09-05T01:33:06.118Z,17.83
2022-09-05T01:36:32.171Z,17.78
2022-09-05T01:40:15.475Z,17.74
2022-09-05T01:43:12.301Z,17.72
2022-09-05T01:46:22.721Z,17.67
2022-09-05T01:49:35.797Z,17.67
2022-09-05T01:52:57.319Z,17.62
2022-09-05T01:56:17.396Z,17.60
2022-09-05T01:59:23.303Z,17.61
2022-09-05T02:02:50.176Z,17.57
2022-09-05T02:06:22.173Z,17.57
2022-09-05T02:09:36.337Z,17.58
2022-09-05T02:12:42.154Z,17.56
2022-09-05T02:15:51.175Z,17.52
2022-09-05T02:19:06.892Z,17.50
2022-09-05T02:22:10.813Z,17.48
2022-09-05T02:26:00.179Z,17.47
2022-09-05T02:28:42.731Z,17.46
2022-09-05T02:31:46.663Z,17.41
2022-09-05T02:34:54.738Z,17.38
2022-09-05T02:39:19.963Z,17.38
2022-09-05T02:45:07.732Z,17.36
2022-09-05T02:45:13.704Z,17.36
2022-09-05T02:48:22.732Z,17.38
2022-09-05T02:57:25.700Z,17.42
2022-09-05T02:57:37.437Z,17.42
2022-09-05T02:58:25.246Z,17.35
2022-09-05T03:01:35.934Z,17.33
2022-09-05T03:04:42.164Z,17.32
2022-09-05T03:07:53.171Z,17.33
2022-09-05T03:11:12.184Z,17.29
2022-09-05T03:14:32.500Z,17.25
2022-09-05T03:17:47.154Z,17.21
2022-09-05T03:21:09.198Z,17.17
2022-09-05T03:24:30.259Z,17.18
2022-09-05T03:27:46.688Z,17.17
2022-09-05T03:30:58.529Z,17.08
2022-09-05T03:34:13.726Z,17.07
2022-09-05T03:37:34.083Z,17.05
2022-09-05T03:40:47.146Z,17.03
2022-09-05T03:44:09.920Z,17.01
2022-09-05T03:47:23.029Z,16.98
2022-09-05T03:57:13.710Z,16.96
2022-09-05T03:57:19.855Z,16.94
2022-09-05T03:57:41.445Z,16.94
2022-09-05T04:00:47.242Z,16.94
2022-09-05T04:08:11.496Z,16.94
2022-09-05T04:08:16.719Z,16.94
2022-09-05T04:10:50.758Z,16.92
2022-09-05T04:13:56.006Z,16.89
2022-09-05T04:17:01.022Z,16.88
2022-09-05T04:20:08.533Z,16.90
2022-09-05T04:23:15.982Z,16.88
2022-09-05T04:26:25.505Z,16.90
2022-09-05T04:29:35.841Z,16.90
2022-09-05T04:32:45.332Z,16.97
2022-09-05T04:35:52.654Z,17.00
2022-09-05T04:39:09.591Z,17.05
2022-09-05T04:42:18.736Z,17.09
2022-09-05T04:45:24.567Z,17.13
2022-09-05T04:48:28.854Z,17.14
2022-09-05T04:51:45.203Z,17.15
2022-09-05T04:55:07.281Z,17.17
2022-09-05T04:58:13.685Z,17.19
2022-09-05T05:05:58.863Z,17.20
2022-09-05T05:06:19.978Z,17.22
2022-09-05T05:08:03.776Z,17.22
2022-09-05T05:15:00.129Z,17.22
2022-09-05T05:18:07.468Z,17.22
2022-09-05T05:18:49.092Z,17.23
2022-09-05T05:21:28.337Z,17.25
2022-09-05T05:24:32.436Z,17.24
2022-09-05T05:27:41.129Z,17.24
2022-09-05T05:30:43.463Z,17.27
2022-09-05T05:33:47.282Z,17.29
2022-09-05T05:36:50.991Z,17.32
2022-09-05T05:40:00.618Z,17.33
2022-09-05T05:43:17.420Z,17.38
2022-09-05T05:46:30.484Z,17.40
2022-09-05T05:49:40.195Z,17.45
2022-09-05T05:52:59.716Z,17.50
2022-09-05T05:56:19.412Z,17.55
2022-09-05T05:59:45.972Z,17.59
2022-09-05T06:03:26.878Z,17.66
2022-09-05T06:06:37.125Z,17.76
2022-09-05T06:14:49.817Z,17.81
2022-09-05T06:14:59.827Z,17.85
2022-09-05T06:17:28.335Z,17.90
2022-09-05T06:22:08.690Z,17.93
2022-09-05T06:24:29.015Z,17.96
2022-09-05T06:28:17.954Z,18.00
2022-09-05T06:31:31.396Z,18.01
2022-09-05T06:34:58.102Z,18.02
2022-09-05T06:38:08.408Z,18.05
2022-09-05T06:41:22.188Z,18.07
2022-09-05T06:44:36.233Z,18.10
2022-09-05T06:47:40.716Z,18.16
2022-09-05T06:51:07.116Z,18.27
2022-09-05T06:54:22.590Z,18.43
2022-09-05T06:57:51.614Z,18.57
2022-09-05T07:00:55.370Z,18.72
2022-09-05T07:05:14.791Z,18.89
2022-09-05T07:07:36.028Z,19.00
2022-09-05T07:10:39.771Z,18.96
2022-09-05T07:13:48.022Z,19.01
2022-09-05T07:16:59.113Z,18.97
2022-09-05T07:20:01.973Z,18.93
2022-09-05T07:23:38.319Z,18.90
2022-09-05T07:26:52.169Z,18.88
2022-09-05T07:30:00.881Z,18.89
2022-09-05T07:33:04.739Z,18.95
2022-09-05T07:36:09.251Z,19.00
2022-09-05T07:39:28.257Z,19.16
2022-09-05T07:42:32.808Z,19.32
2022-09-05T07:45:37.110Z,19.44
2022-09-05T07:48:45.371Z,19.51
2022-09-05T07:56:51.064Z,19.61
2022-09-05T07:57:17.462Z,19.58
2022-09-05T07:58:50.537Z,19.63
2022-09-05T08:01:53.969Z,19.59
2022-09-05T08:05:01.992Z,19.52
2022-09-05T08:08:05.555Z,19.49
2022-09-05T08:11:25.669Z,19.53
2022-09-05T08:14:44.934Z,19.61
2022-09-05T08:17:53.056Z,19.67
2022-09-05T08:20:58.938Z,19.72
2022-09-05T08:24:13.224Z,19.69
2022-09-05T08:27:18.617Z,19.87
2022-09-05T08:30:25.974Z,20.10
2022-09-05T08:33:32.765Z,20.11
2022-09-05T08:36:38.210Z,20.26
2022-09-05T08:39:41.385Z,20.40
2022-09-05T08:43:39.363Z,20.58
2022-09-05T08:46:46.221Z,20.75
2022-09-05T08:49:44.053Z,20.94
2022-09-05T08:52:58.366Z,21.12
2022-09-05T08:56:02.004Z,21.24
2022-09-05T08:59:31.509Z,21.48
2022-09-05T09:02:52.471Z,21.45
2022-09-05T09:06:16.130Z,21.51
2022-09-05T09:09:24.761Z,21.55
2022-09-05T09:12:49.214Z,21.79
2022-09-05T09:15:59.370Z,21.98
2022-09-05T09:19:09.604Z,22.08
2022-09-05T09:22:18.206Z,22.12
2022-09-05T09:25:26.401Z,22.18
2022-09-05T09:28:49.424Z,22.34
2022-09-05T09:32:04.269Z,22.45
2022-09-05T09:35:09.941Z,22.74
2022-09-05T09:38:23.894Z,22.83
2022-09-05T09:41:34.551Z,22.90
2022-09-05T09:44:57.084Z,22.79
2022-09-05T09:48:19.919Z,22.57
2022-09-05T09:51:31.499Z,22.70
2022-09-05T09:54:50.960Z,22.93
2022-09-05T09:58:07.517Z,23.06
2022-09-05T10:01:20.298Z,23.31
2022-09-05T10:10:36.454Z,23.50
2022-09-05T10:10:47.947Z,23.73
2022-09-05T10:11:57.295Z,23.60
2022-09-05T10:15:30.188Z,23.79
2022-09-05T10:18:36.260Z,23.79
2022-09-05T10:25:27.924Z,23.63
2022-09-05T10:28:39.546Z,23.53
2022-09-05T10:35:09.625Z,23.95
2022-09-05T10:35:27.877Z,24.37
2022-09-05T10:38:35.979Z,24.38
2022-09-05T10:41:44.253Z,24.51
2022-09-05T10:44:48.376Z,24.75
2022-09-05T10:47:58.587Z,24.83
2022-09-05T10:51:27.318Z,24.41
2022-09-05T10:54:39.217Z,24.43
2022-09-05T10:57:45.673Z,24.63
2022-09-05T11:02:19.092Z,24.98
2022-09-05T11:04:30.475Z,25.26
2022-09-05T11:07:47.821Z,25.18
2022-09-05T11:10:52.073Z,25.29
2022-09-05T11:13:55.561Z,25.52
2022-09-05T11:17:04.740Z,25.51
2022-09-05T11:20:27.676Z,25.65
2022-09-05T11:23:40.107Z,25.80
2022-09-05T11:26:51.375Z,25.97
2022-09-05T11:30:28.718Z,26.09
2022-09-05T11:38:25.397Z,26.25
2022-09-05T11:40:07.145Z,26.32
2022-09-05T11:41:09.782Z,26.02
2022-09-05T11:44:35.881Z,25.71
2022-09-05T11:48:02.455Z,25.68
2022-09-05T11:51:19.699Z,25.97
2022-09-05T11:54:50.298Z,26.36
2022-09-05T11:58:19.948Z,26.32
2022-09-05T12:01:43.502Z,26.10
2022-09-05T12:05:49.031Z,26.15
2022-09-05T12:08:20.886Z,26.09
2022-09-05T12:11:34.580Z,26.40
2022-09-05T12:14:49.355Z,26.66
2022-09-05T12:18:21.925Z,26.66
2022-09-05T12:21:28.960Z,26.72
2022-09-05T12:25:24.471Z,26.87
2022-09-05T12:28:40.443Z,26.67
2022-09-05T12:32:49.501Z,26.40
2022-09-05T12:36:12.350Z,26.68
2022-09-05T12:40:55.454Z,26.74
2022-09-05T12:42:14.612Z,26.96
2022-09-05T12:45:19.304Z,26.76
2022-09-05T12:48:40.581Z,26.75
2022-09-05T12:51:56.078Z,26.85
2022-09-05T12:55:02.041Z,26.94
2022-09-05T13:02:56.638Z,27.01
2022-09-05T13:03:07.156Z,27.08
2022-09-05T13:05:12.992Z,26.82
2022-09-05T13:08:21.139Z,26.96
2022-09-05T13:15:03.095Z,26.95
2022-09-05T13:15:21.726Z,26.60
2022-09-05T13:18:27.657Z,26.83
2022-09-05T13:21:32.565Z,27.04
2022-09-05T13:24:37.365Z,27.13
2022-09-05T13:27:46.577Z,27.27
2022-09-05T13:34:58.581Z,27.42
2022-09-05T13:38:00.838Z,27.31
2022-09-05T13:38:10.677Z,27.21
2022-09-05T13:41:07.354Z,27.28
2022-09-05T13:44:31.097Z,27.47
2022-09-05T13:47:51.094Z,27.24
2022-09-05T13:50:55.122Z,27.43
2022-09-05T13:54:07.760Z,27.49
2022-09-05T13:57:32.643Z,27.30
2022-09-05T14:00:52.736Z,26.79
2022-09-05T14:08:17.986Z,26.88
2022-09-05T14:11:38.169Z,27.15
2022-09-05T14:18:21.557Z,27.42
2022-09-05T14:21:25.790Z,27.51
2022-09-05T14:24:28.435Z,27.38
2022-09-05T14:27:32.702Z,27.36
2022-09-05T14:33:19.161Z,27.43
2022-09-05T14:37:41.132Z,27.62
2022-09-05T14:38:04.257Z,27.67
2022-09-05T14:41:28.340Z,27.68
2022-09-05T14:44:44.199Z,27.58
2022-09-05T14:47:59.824Z,27.51
2022-09-05T14:51:24.416Z,27.23
2022-09-05T15:02:30.001Z,27.06
2022-09-05T15:02:58.393Z,26.89
2022-09-05T15:04:44.830Z,26.74
2022-09-05T15:07:47.907Z,26.68
2022-09-05T15:12:15.089Z,26.56
2022-09-05T15:14:13.029Z,26.38
2022-09-05T15:17:21.874Z,26.37
2022-09-05T15:20:34.564Z,26.44
2022-09-05T15:23:36.355Z,26.45
2022-09-05T15:26:47.006Z,26.44
2022-09-05T15:29:54.213Z,26.41
2022-09-05T15:33:11.018Z,26.40
2022-09-05T15:36:15.032Z,26.48
2022-09-05T15:39:21.005Z,26.48
2022-09-05T15:42:30.353Z,26.43
2022-09-05T15:45:35.386Z,26.47
2022-09-05T15:48:40.871Z,26.51
2022-09-05T15:51:46.564Z,26.50
2022-09-05T15:54:49.936Z,26.42
2022-09-05T15:57:52.993Z,26.37
2022-09-05T16:00:57.689Z,26.33
2022-09-05T16:07:06.839Z,26.27
2022-09-05T16:10:38.140Z,26.24
2022-09-05T16:11:19.765Z,26.15
2022-09-05T16:14:12.799Z,26.08
2022-09-05T16:23:13.324Z,25.98
2022-09-05T16:23:26.555Z,25.87
2022-09-05T16:24:13.782Z,25.80
2022-09-05T16:27:21.064Z,25.71
2022-09-05T16:30:28.281Z,25.62
2022-09-05T16:33:30.906Z,25.50
2022-09-05T16:36:35.029Z,25.41
2022-09-05T16:39:42.930Z,25.30
2022-09-05T16:42:48.338Z,25.25
2022-09-05T16:45:52.608Z,25.17
2022-09-05T16:48:57.456Z,25.11
2022-09-05T16:52:01.918Z,25.10
2022-09-05T16:55:21.883Z,25.03
2022-09-05T16:58:32.397Z,24.95
2022-09-05T17:01:42.584Z,24.89
2022-09-05T17:05:04.876Z,24.82
2022-09-05T17:08:11.339Z,24.76
2022-09-05T17:11:30.075Z,24.70
2022-09-05T17:14:34.934Z,24.61
2022-09-05T17:18:19.908Z,24.52
2022-09-05T17:21:08.341Z,24.44
2022-09-05T17:27:33.922Z,24.38
2022-09-05T17:29:47.236Z,24.29
2022-09-05T17:34:39.064Z,24.19
2022-09-05T17:37:53.478Z,24.12
2022-09-05T17:41:19.718Z,24.05
2022-09-05T17:44:25.276Z,23.97
2022-09-05T17:47:36.305Z,23.91
2022-09-05T17:50:51.111Z,23.84
2022-09-05T17:54:16.214Z,23.77
2022-09-05T17:57:31.936Z,23.70
2022-09-05T18:00:49.704Z,23.66
2022-09-05T18:04:17.128Z,23.62
2022-09-05T18:07:41.181Z,23.54
2022-09-05T18:11:14.148Z,23.49
2022-09-05T18:14:35.223Z,23.41
2022-09-05T18:17:54.696Z,23.32
2022-09-05T18:21:21.341Z,23.26
2022-09-05T18:24:24.654Z,23.21
2022-09-05T18:28:04.441Z,23.18
2022-09-05T18:31:27.193Z,23.15
2022-09-05T18:35:06.804Z,23.12
2022-09-05T18:38:50.037Z,23.08
2022-09-05T18:41:48.537Z,23.04
2022-09-05T18:44:53.743Z,23.03
2022-09-05T18:48:03.269Z,22.99
2022-09-05T18:51:13.296Z,22.96
2022-09-05T18:54:21.945Z,22.93
2022-09-05T18:57:29.245Z,22.89
2022-09-05T19:00:44.501Z,22.86
2022-09-05T19:03:52.336Z,22.79
2022-09-05T19:06:54.749Z,22.75
2022-09-05T19:10:33.871Z,22.74
2022-09-05T19:13:31.801Z,22.70
2022-09-05T19:16:43.356Z,22.66
2022-09-05T19:37:08.192Z,22.31
2022-09-05T19:42:54.215Z,22.28
2022-09-05T19:47:30.004Z,22.21
2022-09-05T19:47:41.042Z,22.14
2022-09-05T19:49:55.181Z,22.11
2022-09-05T19:53:05.449Z,22.05
2022-09-05T19:56:07.456Z,22.00
2022-09-05T19:59:19.396Z,21.94
2022-09-05T20:02:24.806Z,21.88
2022-09-05T20:05:26.751Z,21.81
2022-09-05T20:21:41.615Z,21.62
2022-09-05T20:27:53.832Z,21.53
2022-09-05T20:44:00.285Z,21.36
2022-09-05T20:52:38.071Z,21.32
2022-09-05T20:54:16.976Z,21.29
2022-09-05T20:54:22.377Z,21.25
2022-09-05T20:57:16.151Z,21.26
2022-09-05T21:13:21.871Z,21.18
2022-09-05T21:16:28.046Z,21.17
2022-09-05T21:19:30.725Z,21.17
2022-09-05T21:22:39.393Z,21.13
2022-09-05T21:25:48.615Z,21.10
2022-09-05T21:29:04.102Z,21.09
2022-09-05T21:32:11.065Z,21.11
2022-09-05T21:35:33.762Z,21.12
2022-09-05T21:38:40.676Z,21.11
2022-09-05T21:41:42.535Z,21.11
2022-09-05T21:47:37.457Z,21.08
2022-09-05T21:48:15.484Z,21.11
2022-09-05T21:51:17.260Z,21.10
2022-09-05T21:59:16.214Z,21.09
2022-09-05T21:59:29.036Z,21.05
2022-09-05T22:01:08.559Z,21.04
2022-09-05T22:04:10.167Z,21.06
2022-09-05T22:07:24.283Z,21.10
2022-09-05T22:10:51.688Z,21.09
2022-09-05T22:13:59.966Z,21.09
2022-09-05T22:17:07.640Z,21.06
2022-09-05T22:20:10.642Z,21.06
2022-09-05T22:23:13.020Z,21.07
2022-09-05T22:26:15.554Z,21.06
2022-09-05T22:29:17.580Z,21.05
2022-09-05T22:32:34.041Z,21.02
2022-09-05T22:35:40.385Z,21.03
2022-09-05T22:38:43.523Z,21.02
2022-09-05T22:41:45.357Z,20.98
2022-09-05T22:44:48.262Z,20.92
2022-09-05T22:47:51.768Z,20.92
2022-09-05T22:50:53.455Z,20.90
2022-09-05T22:53:55.011Z,20.88
2022-09-05T22:56:56.492Z,20.85
2022-09-05T22:59:58.345Z,20.83
2022-09-05T23:03:02.166Z,20.80
2022-09-05T23:06:04.208Z,20.77
2022-09-05T23:09:05.733Z,20.76
2022-09-05T23:12:07.377Z,20.74
2022-09-05T23:15:09.980Z,20.75
2022-09-05T23:18:12.979Z,20.73
2022-09-05T23:21:15.078Z,20.70
2022-09-05T23:24:16.577Z,20.70
2022-09-05T23:27:18.286Z,20.68
2022-09-05T23:30:21.734Z,20.64
2022-09-05T23:33:24.671Z,20.62
2022-09-05T23:36:26.307Z,20.58
2022-09-05T23:39:27.775Z,20.59
2022-09-05T23:42:31.652Z,20.60
2022-09-05T23:45:33.679Z,20.60
2022-09-05T23:48:36.952Z,20.60
2022-09-05T23:51:38.502Z,20.62
2022-09-05T23:54:40.048Z,20.60
2022-09-05T23:57:41.918Z,20.58
